Latest Weather Observations for Cape Wessel

IDD60801

Issued at 8:35 pm CST Monday 20 October 2014 (issued every 30 minutes, with the page automatically refreshed every 10 minutes)

About weather observations | Map of weather stations | Latest weather observations for NT | Other Formats
Station Details ID: 200786 Name: CAPE WESSEL Lat: -11.00 Lon: 136.76 Height: 18.0 m
Data from the previous 72 hours. | See also: Recent months for locations in Northern Territory
Date/Time
CST
Temp
°C
App
Temp
°C
Dew
Point
Rel
Hum
%
Delta-T
°C
Wind Press
QNH
hPa
Press
MSL
hPa
Rain
since 9 am
mm
Dir
 
Spd
km/h
Gust
km/h
Spd
kts
Gust
kts
20/08:30pm 26.0 25.7 21.9 78 2.7 ESE 26 32 14 17 1013.4 - 0.0
20/08:00pm 26.0 25.0 21.2 75 3.2 ESE 28 32 15 17 1013.0 - 0.0
20/07:30pm 26.1 25.1 21.3 75 3.2 ESE 28 33 15 18 1012.7 - 0.0
20/07:00pm 26.1 25.1 21.3 75 3.2 ESE 28 32 15 17 1012.3 - 0.0
20/06:30pm 26.2 25.2 21.2 74 3.3 ESE 28 33 15 18 1012.1 - 0.0
20/06:00pm 26.5 25.3 20.8 71 3.8 ESE 28 35 15 19 1011.8 1011.6 0.0
20/05:30pm 27.2 26.0 20.8 68 4.2 ESE 28 33 15 18 1011.7 - 0.0
20/05:00pm 27.9 26.4 21.0 66 4.6 ESE 30 35 16 19 1011.6 - 0.0
20/04:30pm 28.7 27.2 21.0 63 5.1 ESE 30 37 16 20 1011.5 - 0.0
20/04:00pm 28.8 27.0 20.3 60 5.6 ESE 30 35 16 19 1011.6 - 0.0
20/03:30pm 30.3 29.5 21.7 60 5.8 ESE 28 33 15 18 1011.6 - 0.0
20/03:00pm 30.7 29.7 21.2 57 6.4 ESE 28 35 15 19 1011.8 1011.6 0.0
20/02:30pm 31.1 29.6 21.0 55 6.8 ESE 30 37 16 20 1012.1 - 0.0
20/02:00pm 31.6 31.1 21.4 54 6.9 ESE 26 33 14 18 1012.3 - 0.0
20/01:30pm 31.8 31.0 21.6 54 6.9 E 28 35 15 19 1012.8 - 0.0
20/01:00pm 31.9 31.5 21.7 54 6.9 E 26 32 14 17 1013.2 - 0.0
20/12:30pm 31.9 30.6 21.4 53 7.1 E 30 39 16 21 1013.7 - 0.0
20/12:00pm 31.8 31.2 21.3 53 7.1 E 26 33 14 18 1014.2 1014.0 0.0
20/11:30am 31.2 29.1 20.5 53 7.1 E 32 39 17 21 1014.4 - 0.0
20/11:00am 31.6 31.7 23.9 63 5.4 E 30 37 16 20 1014.7 - 0.0
20/10:30am 27.4 26.3 21.7 71 3.8 E 30 39 16 21 1014.8 - 0.0
20/10:00am 28.9 28.9 22.4 68 4.4 ESE 26 32 14 17 1015.1 - 0.0
20/09:30am 27.7 27.7 22.4 73 3.6 E 26 32 14 17 1015.3 - 0.0
20/09:00am 27.1 26.6 22.1 74 3.4 ESE 28 35 15 19 1015.2 1015.0 0.0
20/08:30am 25.7 24.7 22.0 80 2.5 ESE 30 37 16 20 1015.1 - 0.0
20/08:00am 26.8 26.1 21.8 74 3.3 SE 28 37 15 20 1014.8 - 0.0
20/07:30am 26.5 26.0 21.5 74 3.3 SE 26 30 14 16 1014.5 - 0.0
20/07:00am 26.3 25.4 21.5 75 3.2 SE 28 33 15 18 1014.1 - 0.0
20/06:30am 25.9 25.6 21.8 78 2.7 SE 26 30 14 16 1013.8 - 0.0
20/06:00am 25.4 24.8 21.3 78 2.7 SE 26 32 14 17 1013.4 1013.2 0.0
20/05:30am 25.4 24.7 21.1 77 2.8 SE 26 32 14 17 1013.3 - 0.0
20/05:00am 25.4 25.0 20.9 76 3.0 SE 24 30 13 16 1013.1 - 0.0
20/04:30am 25.4 25.1 21.1 77 2.8 SE 24 30 13 16 1013.0 - 0.0
20/04:00am 25.3 24.9 21.0 77 2.8 SE 24 30 13 16 1012.9 - 0.0
20/03:30am 25.4 25.6 21.3 78 2.7 SE 22 30 12 16 1012.9 - 0.0
20/03:00am 25.3 24.5 20.8 76 3.0 SE 26 32 14 17 1012.9 1012.7 0.0
20/02:30am 25.4 25.0 20.9 76 3.0 SE 24 32 13 17 1012.9 - 0.0
20/02:00am 25.4 24.1 20.6 75 3.1 SE 28 33 15 18 1013.2 - 0.0
20/01:30am 25.5 24.8 21.0 76 3.0 ESE 26 32 14 17 1013.3 - 0.0
20/01:00am 25.6 25.0 20.6 74 3.3 ESE 24 32 13 17 1013.5 - 0.0
20/12:30am 25.5 24.6 20.7 75 3.1 ESE 26 35 14 19 1013.8 - 0.0
20/12:00am 25.3 24.3 20.5 75 3.1 ESE 26 32 14 17 1014.0 1013.8 0.0
 
Date/Time
CST
Temp
°C
App
Temp
°C
Dew
Point
Rel
Hum
%
Delta-T
°C
Wind Press
QNH
hPa
Press
MSL
hPa
Rain
since 9 am
mm
Dir
 
Spd
km/h
Gust
km/h
Spd
kts
Gust
kts
19/11:30pm 25.3 24.3 20.5 75 3.1 SE 26 32 14 17 1014.2 - 0.0
19/11:00pm 25.3 24.1 20.1 73 3.4 ESE 26 32 14 17 1014.3 - 0.0
19/10:30pm 25.4 24.5 20.6 75 3.1 ESE 26 32 14 17 1014.4 - 0.0
19/10:00pm 25.4 24.8 20.6 75 3.1 ESE 24 32 13 17 1014.3 - 0.0
19/09:30pm 25.5 24.4 20.3 73 3.4 ESE 26 33 14 18 1014.0 - 0.0
19/09:00pm 25.5 24.3 20.1 72 3.5 ESE 26 33 14 18 1013.7 1013.5 0.0
19/08:30pm 25.6 24.6 20.4 73 3.4 ESE 26 33 14 18 1013.3 - 0.0
19/08:00pm 25.7 24.2 20.3 72 3.5 ESE 28 35 15 19 1013.0 - 0.0
19/07:30pm 25.8 24.2 20.1 71 3.7 ESE 28 35 15 19 1012.7 - 0.0
19/07:00pm 25.9 24.5 20.5 72 3.5 ESE 28 35 15 19 1012.5 - 0.0
19/06:30pm 26.0 24.1 20.1 70 3.8 ESE 30 37 16 20 1012.3 - 0.0
19/06:00pm 26.5 24.5 19.9 67 4.3 ESE 30 35 16 19 1012.1 1011.9 0.0
19/05:30pm 27.4 25.9 20.2 65 4.7 ESE 28 35 15 19 1012.0 - 0.0
19/05:00pm 28.3 26.4 20.1 61 5.4 ESE 30 39 16 21 1011.9 - 0.0
19/04:30pm 28.8 27.3 20.3 60 5.6 ESE 28 33 15 18 1011.7 - 0.0
19/04:00pm 29.4 27.6 20.3 58 6.0 E 30 37 16 20 1011.6 - 0.0
19/03:30pm 29.9 27.6 20.2 56 6.4 E 32 39 17 21 1011.7 - 0.0
19/03:00pm 30.7 28.6 20.6 54 6.7 ESE 32 39 17 21 1011.9 1011.7 0.0
19/02:30pm 31.0 29.1 20.9 55 6.7 E 32 37 17 20 1012.0 - 0.0
19/02:00pm 31.0 28.9 20.6 54 6.9 E 32 37 17 20 1012.3 - 0.0
19/01:30pm 32.0 30.6 21.2 52 7.3 E 30 39 16 21 1012.4 - 0.0
19/01:00pm 30.9 28.9 20.8 55 6.7 E 32 39 17 21 1012.8 - 0.0
19/12:30pm 30.6 28.3 20.2 53 6.9 E 32 41 17 22 1013.1 - 0.0
19/12:00pm 31.2 29.2 21.1 55 6.8 E 33 44 18 24 1013.5 1013.3 0.0
19/11:30am 30.5 27.9 20.7 55 6.5 E 35 43 19 23 1014.0 - 0.0
19/11:00am 30.3 28.0 20.5 55 6.5 E 33 43 18 23 1014.3 - 0.0
19/10:30am 30.7 27.3 20.6 54 6.7 E 39 48 21 26 1014.5 - 0.0
19/10:00am 29.8 26.5 20.9 59 5.9 E 39 48 21 26 1014.5 - 0.0
19/09:30am 29.1 26.2 20.8 61 5.5 E 37 48 20 26 1014.7 - 0.0
19/09:00am 29.1 26.3 21.1 62 5.3 E 37 46 20 25 1014.7 1014.5 0.0
19/08:30am 28.4 25.3 21.2 65 4.8 E 39 46 21 25 1014.6 - 0.0
19/08:00am 28.2 26.5 21.7 68 4.4 E 33 41 18 22 1014.3 - 0.0
19/07:30am 27.5 24.8 21.3 69 4.1 E 37 48 20 26 1014.0 - 0.0
19/07:00am 26.8 24.9 21.3 72 3.7 E 33 43 18 23 1013.7 - 0.0
19/06:30am 26.4 23.7 21.2 73 3.4 E 37 50 20 27 1013.3 - 0.0
19/06:00am 26.3 23.5 21.1 73 3.4 E 37 48 20 26 1013.0 1012.8 0.0
19/05:30am 26.2 23.1 20.5 71 3.7 E 37 46 20 25 1012.8 - 0.0
19/05:00am 25.9 24.9 22.0 79 2.6 E 30 35 16 19 1012.7 - 0.0
19/04:30am 25.9 25.4 22.2 80 2.5 E 28 33 15 18 1012.6 - 0.0
19/04:00am 26.1 26.0 22.2 79 2.6 E 26 33 14 18 1012.3 - 0.0
19/03:30am 25.8 25.4 21.7 78 2.7 E 26 33 14 18 1012.3 - 0.0
19/03:00am 25.9 25.2 21.8 78 2.7 E 28 35 15 19 1012.3 1012.1 0.0
19/02:30am 26.0 24.7 21.4 76 3.1 E 30 39 16 21 1012.3 - 0.0
19/02:00am 26.1 25.1 22.0 78 2.7 E 30 35 16 19 1012.4 - 0.0
19/01:30am 25.9 24.7 21.6 77 2.9 E 30 39 16 21 1012.8 - 0.0
19/01:00am 25.9 24.5 21.1 75 3.2 E 30 39 16 21 1013.1 - 0.0
19/12:30am 26.1 25.0 21.7 77 2.9 E 30 43 16 23 1013.4 - 0.0
19/12:00am 25.9 24.8 21.8 78 2.7 E 30 37 16 20 1013.6 1013.4 0.0
 
Date/Time
CST
Temp
°C
App
Temp
°C
Dew
Point
Rel
Hum
%
Delta-T
°C
Wind Press
QNH
hPa
Press
MSL
hPa
Rain
since 9 am
mm
Dir
 
Spd
km/h
Gust
km/h
Spd
kts
Gust
kts
18/11:30pm 25.9 24.7 21.6 77 2.9 E 30 37 16 20 1013.9 - 0.0
18/11:00pm 26.0 24.3 21.4 76 3.1 E 32 39 17 21 1013.9 - 0.0
18/10:30pm 25.9 24.7 21.6 77 2.9 ESE 30 35 16 19 1013.9 - 0.0
18/10:00pm 26.1 25.1 22.0 78 2.7 ESE 30 37 16 20 1013.9 - 0.0
18/09:30pm 26.1 24.6 21.7 77 2.9 ESE 32 37 17 20 1013.7 - 0.0
18/09:00pm 26.1 24.7 22.0 78 2.7 ESE 32 39 17 21 1013.3 1013.1 0.0
18/08:30pm 26.1 24.5 21.5 76 3.1 ESE 32 37 17 20 1013.0 - 0.0
18/08:00pm 26.3 25.1 22.2 78 2.8 ESE 32 39 17 21 1013.0 - 0.0
18/07:30pm 26.4 25.2 22.3 78 2.8 ESE 32 39 17 21 1012.8 - 0.0
18/07:00pm 26.4 25.3 21.8 76 3.1 ESE 30 37 16 20 1012.5 - 0.0
18/06:30pm 26.5 25.4 21.7 75 3.2 E 30 35 16 19 1012.2 - 0.0
18/06:00pm 26.9 25.9 21.2 71 3.8 E 28 33 15 18 1011.9 1011.7 0.0
18/05:30pm 27.8 27.3 22.1 71 3.8 E 28 35 15 19 1011.5 - 0.0
18/05:00pm 28.5 27.6 21.5 66 4.7 E 28 35 15 19 1011.3 - 0.0
18/04:30pm 29.2 28.8 22.4 66 4.6 E 28 33 15 18 1011.1 - 0.0
18/04:00pm 29.8 29.8 23.0 67 4.7 E 28 33 15 18 1011.1 - 0.0
18/03:30pm 29.8 29.0 22.3 64 5.1 E 30 35 16 19 1011.1 - 0.0
18/03:00pm 30.7 30.4 22.6 62 5.5 E 28 35 15 19 1011.3 1011.1 0.0
18/02:30pm 30.6 30.7 22.5 62 5.5 E 26 35 14 19 1011.5 - 0.0
18/02:00pm 31.0 31.1 22.6 61 5.7 E 26 33 14 18 1011.6 - 0.0
18/01:30pm 31.3 31.2 22.9 61 5.8 E 28 35 15 19 1011.9 - 0.0
18/01:00pm 31.6 32.0 23.2 61 5.8 E 26 33 14 18 1012.3 - 0.0
18/12:30pm 31.3 30.8 22.9 61 5.8 E 30 39 16 21 1012.6 - 0.0
18/12:00pm 31.1 30.3 23.0 62 5.6 E 32 39 17 21 1013.2 1013.0 0.0
18/11:30am 31.2 31.9 23.6 64 5.3 E 26 35 14 19 1013.8 - 0.0
18/11:00am 31.2 31.5 23.0 61 5.6 ENE 26 35 14 19 1014.1 - 0.0
18/10:30am 31.4 31.5 23.2 61 5.7 E 28 37 15 20 1014.3 - 0.0
18/10:00am 31.0 31.3 22.9 62 5.6 E 26 35 14 19 1014.5 - 0.0
18/09:30am 30.3 29.7 22.7 64 5.2 E 30 35 16 19 1014.8 - 0.0
18/09:00am 29.6 29.6 23.1 68 4.5 E 28 35 15 19 1014.8 1014.6 0.0
18/08:30am 29.3 30.8 23.7 72 3.9 E 22 28 12 15 1014.8 - 0.0
18/08:00am 28.9 30.2 23.3 72 3.8 E 22 26 12 14 1014.6 - 0.0
18/07:30am 27.8 28.3 22.7 74 3.5 E 24 30 13 16 1014.1 - 0.0
18/07:00am 27.1 27.9 23.1 79 2.7 E 24 30 13 16 1013.6 - 0.0
18/06:30am 26.3 27.3 22.8 81 2.4 E 22 28 12 15 1013.1 - 0.0
18/06:00am 25.9 26.8 22.6 82 2.2 E 22 28 12 15 1012.9 1012.7 0.0
18/05:30am 26.2 27.2 22.9 82 2.2 E 22 28 12 15 1012.7 - 0.0
18/05:00am 26.0 26.7 22.3 80 2.5 E 22 28 12 15 1012.6 - 0.0
18/04:30am 26.0 27.3 22.7 82 2.2 ESE 20 24 11 13 1012.4 - 0.0
18/04:00am 26.1 27.7 22.8 82 2.2 ESE 19 24 10 13 1012.2 - 0.0
18/03:30am 26.2 27.5 22.7 81 2.4 ESE 20 24 11 13 1012.0 - 0.0
18/03:00am 26.2 27.7 22.7 81 2.4 ESE 19 22 10 12 1012.1 1011.9 0.0
18/02:30am 26.1 27.5 22.6 81 2.4 SE 19 22 10 12 1012.1 - 0.0
18/02:00am 26.1 27.7 22.8 82 2.2 SE 19 22 10 12 1012.2 - 0.0
18/01:30am 25.9 27.3 22.6 82 2.2 ESE 19 22 10 12 1012.5 - 0.0
18/01:00am 25.9 27.3 22.6 82 2.2 ESE 19 26 10 14 1012.8 - 0.0
18/12:30am 26.1 27.0 22.6 81 2.4 E 22 26 12 14 1013.0 - 0.0
18/12:00am 26.1 27.0 22.6 81 2.4 E 22 26 12 14 1013.2 1013.0 0.0
 
Date/Time
CST
Temp
°C
App
Temp
°C
Dew
Point
Rel
Hum
%
Delta-T
°C
Wind Press
QNH
hPa
Press
MSL
hPa
Rain
since 9 am
mm
Dir
 
Spd
km/h
Gust
km/h
Spd
kts
Gust
kts
17/11:30pm 26.3 27.3 22.8 81 2.4 ESE 22 26 12 14 1013.5 - 0.0
17/11:00pm 26.3 26.9 22.8 81 2.4 E 24 30 13 16 1013.6 - 0.0
17/10:30pm 26.2 26.5 22.3 79 2.6 E 24 30 13 16 1013.8 - 0.0
17/10:00pm 26.4 26.7 22.9 81 2.4 ESE 26 32 14 17 1013.7 - 0.0
17/09:30pm 26.4 27.4 22.9 81 2.4 ESE 22 28 12 15 1013.5 - 0.0
17/09:00pm 26.4 26.3 22.3 78 2.8 SE 26 32 14 17 1013.3 1013.1 0.0

Other Formats:

Comma delimited format used in spreadsheet applications
http://www.bom.gov.au/fwo/IDD60801/IDD60801.94147.axf

JavaScript Object Notation format (JSON) in row-major order
http://www.bom.gov.au/fwo/IDD60801/IDD60801.94147.json